sensor_id;sensor_type;location;lat;lon;timestamp;pressure;altitude;pressure_sealevel;temperature;humidity
54038;BME280;39954;48.844;9.726;2024-03-08T00:00:14;96009.09;;;-1.42;100.00
54038;BME280;39954;48.844;9.726;2024-03-08T00:01:21;96008.25;;;-1.43;100.00
54038;BME280;39954;48.844;9.726;2024-03-08T00:02:26;96013.34;;;-1.43;100.00
54038;BME280;39954;48.844;9.726;2024-03-08T00:03:28;96010.81;;;-1.43;100.00
54038;BME280;39954;48.844;9.726;2024-03-08T00:04:34;96009.94;;;-1.42;100.00
54038;BME280;39954;48.844;9.726;2024-03-08T00:05:36;96007.44;;;-1.48;100.00
54038;BME280;39954;48.844;9.726;2024-03-08T00:06:41;96018.50;;;-1.47;100.00
54038;BME280;39954;48.844;9.726;2024-03-08T00:07:43;96014.25;;;-1.50;100.00
54038;BME280;39954;48.844;9.726;2024-03-08T00:08:48;96013.44;;;-1.50;100.00
54038;BME280;39954;48.844;9.726;2024-03-08T00:09:50;96008.25;;;-1.44;100.00
54038;BME280;39954;48.844;9.726;2024-03-08T00:10:55;96016.78;;;-1.47;100.00
54038;BME280;39954;48.844;9.726;2024-03-08T00:11:57;96010.84;;;-1.49;100.00
54038;BME280;39954;48.844;9.726;2024-03-08T00:13:02;96008.28;;;-1.47;100.00
54038;BME280;39954;48.844;9.726;2024-03-08T00:14:05;96008.28;;;-1.49;100.00
54038;BME280;39954;48.844;9.726;2024-03-08T00:15:10;96011.72;;;-1.48;100.00
54038;BME280;39954;48.844;9.726;2024-03-08T00:16:16;96009.97;;;-1.46;100.00
54038;BME280;39954;48.844;9.726;2024-03-08T00:17:23;96013.34;;;-1.44;100.00
54038;BME280;39954;48.844;9.726;2024-03-08T00:18:26;96008.25;;;-1.46;100.00
54038;BME280;39954;48.844;9.726;2024-03-08T00:19:31;96007.44;;;-1.48;100.00
54038;BME280;39954;48.844;9.726;2024-03-08T00:20:33;95999.88;;;-1.55;100.00
54038;BME280;39954;48.844;9.726;2024-03-08T00:21:38;96000.69;;;-1.52;100.00
54038;BME280;39954;48.844;9.726;2024-03-08T00:22:41;95996.53;;;-1.61;100.00
54038;BME280;39954;48.844;9.726;2024-03-08T00:23:46;95998.25;;;-1.63;100.00
54038;BME280;39954;48.844;9.726;2024-03-08T00:24:48;96000.78;;;-1.63;100.00
54038;BME280;39954;48.844;9.726;2024-03-08T00:25:54;96000.00;;;-1.65;100.00
54038;BME280;39954;48.844;9.726;2024-03-08T00:26:57;95994.06;;;-1.67;100.00
54038;BME280;39954;48.844;9.726;2024-03-08T00:28:02;95996.59;;;-1.67;100.00
54038;BME280;39954;48.844;9.726;2024-03-08T00:29:06;96000.06;;;-1.71;100.00
54038;BME280;39954;48.844;9.726;2024-03-08T00:30:11;96001.78;;;-1.73;100.00
54038;BME280;39954;48.844;9.726;2024-03-08T00:31:15;95994.94;;;-1.68;100.00
54038;BME280;39954;48.844;9.726;2024-03-08T00:32:23;96008.50;;;-1.69;100.00
54038;BME280;39954;48.844;9.726;2024-03-08T00:33:26;95991.53;;;-1.70;100.00
54038;BME280;39954;48.844;9.726;2024-03-08T00:34:32;95991.56;;;-1.73;100.00
54038;BME280;39954;48.844;9.726;2024-03-08T00:35:34;95989.03;;;-1.74;100.00
54038;BME280;39954;48.844;9.726;2024-03-08T00:36:39;95988.25;;;-1.81;100.00
54038;BME280;39954;48.844;9.726;2024-03-08T00:37:41;95991.66;;;-1.79;100.00
54038;BME280;39954;48.844;9.726;2024-03-08T00:38:49;95994.16;;;-1.76;100.00
54038;BME280;39954;48.844;9.726;2024-03-08T00:39:51;95992.53;;;-1.83;100.00
54038;BME280;39954;48.844;9.726;2024-03-08T00:40:56;95990.00;;;-1.85;100.00
54038;BME280;39954;48.844;9.726;2024-03-08T00:41:59;95984.06;;;-1.87;100.00
54038;BME280;39954;48.844;9.726;2024-03-08T00:43:04;95982.38;;;-1.88;100.00
54038;BME280;39954;48.844;9.726;2024-03-08T00:44:06;95984.94;;;-1.89;100.00
54038;BME280;39954;48.844;9.726;2024-03-08T00:45:12;95984.94;;;-1.89;100.00
54038;BME280;39954;48.844;9.726;2024-03-08T00:46:14;95983.25;;;-1.90;100.00
54038;BME280;39954;48.844;9.726;2024-03-08T00:47:19;95978.13;;;-1.87;100.00
54038;BME280;39954;48.844;9.726;2024-03-08T00:48:24;95983.22;;;-1.87;100.00
54038;BME280;39954;48.844;9.726;2024-03-08T00:49:29;95973.03;;;-1.87;100.00
54038;BME280;39954;48.844;9.726;2024-03-08T00:50:32;95972.91;;;-1.75;100.00
54038;BME280;39954;48.844;9.726;2024-03-08T00:51:37;95965.22;;;-1.70;100.00
54038;BME280;39954;48.844;9.726;2024-03-08T00:52:39;95972.03;;;-1.72;100.00
54038;BME280;39954;48.844;9.726;2024-03-08T00:53:44;95960.97;;;-1.70;100.00
54038;BME280;39954;48.844;9.726;2024-03-08T00:54:46;95962.59;;;-1.66;100.00
54038;BME280;39954;48.844;9.726;2024-03-08T00:55:51;95956.66;;;-1.65;100.00
54038;BME280;39954;48.844;9.726;2024-03-08T00:56:53;95961.81;;;-1.69;100.00
54038;BME280;39954;48.844;9.726;2024-03-08T00:57:58;95960.84;;;-1.59;100.00
54038;BME280;39954;48.844;9.726;2024-03-08T00:59:01;95949.81;;;-1.63;100.00
54038;BME280;39954;48.844;9.726;2024-03-08T01:00:07;95950.63;;;-1.58;100.00
54038;BME280;39954;48.844;9.726;2024-03-08T01:01:12;95955.75;;;-1.59;100.00
54038;BME280;39954;48.844;9.726;2024-03-08T01:02:17;95956.56;;;-1.55;100.00
54038;BME280;39954;48.844;9.726;2024-03-08T01:03:21;95951.50;;;-1.59;100.00
54038;BME280;39954;48.844;9.726;2024-03-08T01:04:28;95957.38;;;-1.53;100.00
54038;BME280;39954;48.844;9.726;2024-03-08T01:05:31;95948.06;;;-1.56;100.00
54038;BME280;39954;48.844;9.726;2024-03-08T01:06:37;95957.31;;;-1.49;100.00
54038;BME280;39954;48.844;9.726;2024-03-08T01:07:39;95944.56;;;-1.49;100.00
54038;BME280;39954;48.844;9.726;2024-03-08T01:08:43;95946.25;;;-1.46;100.00
54038;BME280;39954;48.844;9.726;2024-03-08T01:09:46;95945.41;;;-1.45;100.00
54038;BME280;39954;48.844;9.726;2024-03-08T01:10:51;95945.41;;;-1.47;100.00
54038;BME280;39954;48.844;9.726;2024-03-08T01:11:54;95938.66;;;-1.51;100.00
54038;BME280;39954;48.844;9.726;2024-03-08T01:12:59;95933.63;;;-1.55;100.00
54038;BME280;39954;48.844;9.726;2024-03-08T01:14:01;95930.97;;;-1.48;100.00
54038;BME280;39954;48.844;9.726;2024-03-08T01:15:06;95935.25;;;-1.48;100.00
54038;BME280;39954;48.844;9.726;2024-03-08T01:16:09;95932.69;;;-1.48;100.00
54038;BME280;39954;48.844;9.726;2024-03-08T01:17:17;95936.13;;;-1.51;100.00
54038;BME280;39954;48.844;9.726;2024-03-08T01:18:19;95924.13;;;-1.46;100.00
54038;BME280;39954;48.844;9.726;2024-03-08T01:19:24;95926.69;;;-1.44;100.00
54038;BME280;39954;48.844;9.726;2024-03-08T01:20:29;95924.19;;;-1.49;100.00
54038;BME280;39954;48.844;9.726;2024-03-08T01:21:34;95928.53;;;-1.57;100.00
54038;BME280;39954;48.844;9.726;2024-03-08T01:22:36;95920.00;;;-1.54;100.00
54038;BME280;39954;48.844;9.726;2024-03-08T01:23:41;95922.63;;;-1.59;100.00
54038;BME280;39954;48.844;9.726;2024-03-08T01:24:44;95927.72;;;-1.61;100.00
54038;BME280;39954;48.844;9.726;2024-03-08T01:25:48;95925.22;;;-1.64;100.00
54038;BME280;39954;48.844;9.726;2024-03-08T01:26:58;95933.78;;;-1.68;100.00
54038;BME280;39954;48.844;9.726;2024-03-08T01:28:05;95932.09;;;-1.72;100.00
54038;BME280;39954;48.844;9.726;2024-03-08T01:29:07;95927.91;;;-1.76;100.00
54038;BME280;39954;48.844;9.726;2024-03-08T01:30:12;95930.50;;;-1.82;100.00
54038;BME280;39954;48.844;9.726;2024-03-08T01:31:15;95927.19;;;-1.87;100.00
54038;BME280;39954;48.844;9.726;2024-03-08T01:32:20;95927.22;;;-1.93;100.00
54038;BME280;39954;48.844;9.726;2024-03-08T01:33:25;95922.22;;;-1.99;100.00
54038;BME280;39954;48.844;9.726;2024-03-08T01:34:28;95919.63;;;-1.95;100.00
54038;BME280;39954;48.844;9.726;2024-03-08T01:35:37;95922.22;;;-1.99;100.00
54038;BME280;39954;48.844;9.726;2024-03-08T01:36:43;95920.47;;;-1.93;100.00
54038;BME280;39954;48.844;9.726;2024-03-08T01:37:48;95915.28;;;-1.88;100.00
54038;BME280;39954;48.844;9.726;2024-03-08T01:38:51;95913.66;;;-1.92;100.00
54038;BME280;39954;48.844;9.726;2024-03-08T01:39:57;95910.19;;;-1.88;100.00
54038;BME280;39954;48.844;9.726;2024-03-08T01:40:59;95916.16;;;-1.91;100.00
54038;BME280;39954;48.844;9.726;2024-03-08T01:42:04;95915.34;;;-1.91;100.00
54038;BME280;39954;48.844;9.726;2024-03-08T01:43:20;95910.28;;;-1.94;100.00
54038;BME280;39954;48.844;9.726;2024-03-08T01:44:25;95909.41;;;-1.93;100.00
54038;BME280;39954;48.844;9.726;2024-03-08T01:45:27;95900.13;;;-1.97;100.00
54038;BME280;39954;48.844;9.726;2024-03-08T01:46:32;95903.59;;;-2.01;100.00
54038;BME280;39954;48.844;9.726;2024-03-08T01:47:35;95904.38;;;-1.98;100.00
54038;BME280;39954;48.844;9.726;2024-03-08T01:48:41;95900.97;;;-1.95;100.00
54038;BME280;39954;48.844;9.726;2024-03-08T01:49:44;95900.97;;;-1.97;100.00
54038;BME280;39954;48.844;9.726;2024-03-08T01:51:15;95900.94;;;-1.92;100.00
54038;BME280;39954;48.844;9.726;2024-03-08T01:52:18;95900.88;;;-1.91;100.00
54038;BME280;39954;48.844;9.726;2024-03-08T01:53:26;95906.84;;;-1.93;100.00
54038;BME280;39954;48.844;9.726;2024-03-08T01:54:29;95902.63;;;-1.93;100.00
54038;BME280;39954;48.844;9.726;2024-03-08T01:55:35;95898.41;;;-1.95;100.00
54038;BME280;39954;48.844;9.726;2024-03-08T01:56:38;95899.22;;;-1.93;100.00
54038;BME280;39954;48.844;9.726;2024-03-08T01:57:44;95891.56;;;-1.90;100.00
54038;BME280;39954;48.844;9.726;2024-03-08T01:58:46;95893.28;;;-1.92;100.00
54038;BME280;39954;48.844;9.726;2024-03-08T01:59:51;95888.16;;;-1.89;100.00
54038;BME280;39954;48.844;9.726;2024-03-08T02:00:56;95889.06;;;-1.95;100.00
54038;BME280;39954;48.844;9.726;2024-03-08T02:02:02;95892.41;;;-1.91;100.00
54038;BME280;39954;48.844;9.726;2024-03-08T02:03:05;95887.28;;;-1.88;100.00
54038;BME280;39954;48.844;9.726;2024-03-08T02:04:09;95882.97;;;-1.83;100.00
54038;BME280;39954;48.844;9.726;2024-03-08T02:05:13;95878.72;;;-1.81;100.00
54038;BME280;39954;48.844;9.726;2024-03-08T02:06:20;95879.50;;;-1.76;100.00
54038;BME280;39954;48.844;9.726;2024-03-08T02:07:23;95881.97;;;-1.71;100.00
54038;BME280;39954;48.844;9.726;2024-03-08T02:08:28;95873.59;;;-1.78;100.00
54038;BME280;39954;48.844;9.726;2024-03-08T02:09:31;95876.97;;;-1.76;100.00
54038;BME280;39954;48.844;9.726;2024-03-08T02:10:52;95872.72;;;-1.77;100.00
54038;BME280;39954;48.844;9.726;2024-03-08T02:11:55;95873.59;;;-1.78;100.00
54038;BME280;39954;48.844;9.726;2024-03-08T02:13:02;95867.69;;;-1.82;100.00
54038;BME280;39954;48.844;9.726;2024-03-08T02:14:04;95873.59;;;-1.78;100.00
54038;BME280;39954;48.844;9.726;2024-03-08T02:15:10;95861.72;;;-1.79;100.00
54038;BME280;39954;48.844;9.726;2024-03-08T02:16:12;95867.66;;;-1.78;100.00
54038;BME280;39954;48.844;9.726;2024-03-08T02:17:24;95861.63;;;-1.74;100.00
54038;BME280;39954;48.844;9.726;2024-03-08T02:18:27;95861.69;;;-1.76;100.00
54038;BME280;39954;48.844;9.726;2024-03-08T02:19:35;95860.88;;;-1.83;100.00
54038;BME280;39954;48.844;9.726;2024-03-08T02:20:40;95868.53;;;-1.83;100.00
54038;BME280;39954;48.844;9.726;2024-03-08T02:21:46;95867.69;;;-1.82;100.00
54038;BME280;39954;48.844;9.726;2024-03-08T02:22:49;95868.59;;;-1.87;100.00
54038;BME280;39954;48.844;9.726;2024-03-08T02:23:54;95862.63;;;-1.85;100.00
54038;BME280;39954;48.844;9.726;2024-03-08T02:24:57;95866.06;;;-1.87;100.00
54038;BME280;39954;48.844;9.726;2024-03-08T02:26:03;95864.34;;;-1.88;100.00
54038;BME280;39954;48.844;9.726;2024-03-08T02:27:06;95863.63;;;-1.98;100.00
54038;BME280;39954;48.844;9.726;2024-03-08T02:28:10;95865.38;;;-2.01;100.00
54038;BME280;39954;48.844;9.726;2024-03-08T02:29:15;95865.47;;;-2.09;100.00
54038;BME280;39954;48.844;9.726;2024-03-08T02:30:18;95858.69;;;-2.13;100.00
54038;BME280;39954;48.844;9.726;2024-03-08T02:31:23;95861.22;;;-2.12;100.00
54038;BME280;39954;48.844;9.726;2024-03-08T02:32:25;95862.03;;;-2.08;100.00
54038;BME280;39954;48.844;9.726;2024-03-08T02:33:30;95857.78;;;-2.08;100.00
54038;BME280;39954;48.844;9.726;2024-03-08T02:34:32;95854.41;;;-2.07;100.00
54038;BME280;39954;48.844;9.726;2024-03-08T02:35:40;95856.91;;;-2.05;100.00
54038;BME280;39954;48.844;9.726;2024-03-08T02:36:43;95856.00;;;-1.99;100.00
54038;BME280;39954;48.844;9.726;2024-03-08T02:37:48;95854.31;;;-2.00;100.00
54038;BME280;39954;48.844;9.726;2024-03-08T02:38:50;95858.66;;;-2.10;100.00
54038;BME280;39954;48.844;9.726;2024-03-08T02:39:57;95852.69;;;-2.08;100.00
54038;BME280;39954;48.844;9.726;2024-03-08T02:40:59;95850.19;;;-2.09;100.00
54038;BME280;39954;48.844;9.726;2024-03-08T02:42:01;95845.91;;;-2.09;100.00
54038;BME280;39954;48.844;9.726;2024-03-08T02:43:06;95843.38;;;-2.09;100.00
54038;BME280;39954;48.844;9.726;2024-03-08T02:44:08;95843.38;;;-2.10;100.00
54038;BME280;39954;48.844;9.726;2024-03-08T02:45:14;95841.66;;;-2.07;100.00
54038;BME280;39954;48.844;9.726;2024-03-08T02:46:16;95845.91;;;-2.09;100.00
54038;BME280;39954;48.844;9.726;2024-03-08T02:47:21;95838.25;;;-2.04;100.00
54038;BME280;39954;48.844;9.726;2024-03-08T02:48:26;95836.56;;;-2.08;100.00
54038;BME280;39954;48.844;9.726;2024-03-08T02:49:31;95833.97;;;-2.04;100.00
54038;BME280;39954;48.844;9.726;2024-03-08T02:50:33;95831.41;;;-2.02;100.00
54038;BME280;39954;48.844;9.726;2024-03-08T02:51:41;95833.91;;;-1.97;100.00
54038;BME280;39954;48.844;9.726;2024-03-08T02:52:44;95835.63;;;-1.99;100.00
54038;BME280;39954;48.844;9.726;2024-03-08T02:53:48;95830.53;;;-1.99;100.00
54038;BME280;39954;48.844;9.726;2024-03-08T02:54:53;95822.88;;;-1.99;100.00
54038;BME280;39954;48.844;9.726;2024-03-08T02:55:59;95825.41;;;-1.96;100.00
54038;BME280;39954;48.844;9.726;2024-03-08T02:57:01;95831.38;;;-1.99;100.00
54038;BME280;39954;48.844;9.726;2024-03-08T02:58:06;95823.72;;;-1.96;100.00
54038;BME280;39954;48.844;9.726;2024-03-08T02:59:12;95821.19;;;-1.99;100.00
54038;BME280;39954;48.844;9.726;2024-03-08T03:00:20;95827.09;;;-1.97;100.00
54038;BME280;39954;48.844;9.726;2024-03-08T03:01:23;95821.19;;;-1.99;100.00
54038;BME280;39954;48.844;9.726;2024-03-08T03:02:28;95821.16;;;-1.97;100.00
54038;BME280;39954;48.844;9.726;2024-03-08T03:03:30;95817.69;;;-1.90;100.00
54038;BME280;39954;48.844;9.726;2024-03-08T03:04:35;95819.41;;;-1.92;100.00
54038;BME280;39954;48.844;9.726;2024-03-08T03:05:37;95822.03;;;-1.98;100.00
54038;BME280;39954;48.844;9.726;2024-03-08T03:06:52;95821.19;;;-1.99;100.00
54038;BME280;39954;48.844;9.726;2024-03-08T03:07:54;95821.28;;;-2.07;100.00
54038;BME280;39954;48.844;9.726;2024-03-08T03:09:00;95819.59;;;-2.06;100.00
54038;BME280;39954;48.844;9.726;2024-03-08T03:10:02;95820.41;;;-2.04;100.00
54038;BME280;39954;48.844;9.726;2024-03-08T03:11:08;95822.09;;;-2.03;100.00
54038;BME280;39954;48.844;9.726;2024-03-08T03:12:11;95826.34;;;-2.04;100.00
54038;BME280;39954;48.844;9.726;2024-03-08T03:13:16;95823.78;;;-2.04;100.00
54038;BME280;39954;48.844;9.726;2024-03-08T03:14:18;95818.63;;;-1.99;100.00
54038;BME280;39954;48.844;9.726;2024-03-08T03:15:23;95816.09;;;-1.99;100.00
54038;BME280;39954;48.844;9.726;2024-03-08T03:16:29;95813.63;;;-2.05;100.00
54038;BME280;39954;48.844;9.726;2024-03-08T03:17:33;95818.72;;;-2.04;100.00
54038;BME280;39954;48.844;9.726;2024-03-08T03:18:36;95819.53;;;-2.05;100.00
54038;BME280;39954;48.844;9.726;2024-03-08T03:19:40;95817.00;;;-2.01;100.00
54038;BME280;39954;48.844;9.726;2024-03-08T03:20:45;95817.06;;;-2.09;100.00
54038;BME280;39954;48.844;9.726;2024-03-08T03:21:47;95817.06;;;-2.09;100.00
54038;BME280;39954;48.844;9.726;2024-03-08T03:22:55;95824.75;;;-2.14;100.00
54038;BME280;39954;48.844;9.726;2024-03-08T03:23:59;95815.38;;;-2.10;100.00
54038;BME280;39954;48.844;9.726;2024-03-08T03:25:04;95818.72;;;-2.04;100.00
54038;BME280;39954;48.844;9.726;2024-03-08T03:26:08;95812.81;;;-2.09;100.00
54038;BME280;39954;48.844;9.726;2024-03-08T03:27:10;95812.06;;;-2.17;100.00
54038;BME280;39954;48.844;9.726;2024-03-08T03:28:16;95818.00;;;-2.15;100.00
54038;BME280;39954;48.844;9.726;2024-03-08T03:29:20;95823.91;;;-2.14;100.00
54038;BME280;39954;48.844;9.726;2024-03-08T03:30:25;95814.69;;;-2.23;100.00
54038;BME280;39954;48.844;9.726;2024-03-08T03:31:28;95816.44;;;-2.27;100.00
54038;BME280;39954;48.844;9.726;2024-03-08T03:32:33;95808.84;;;-2.31;100.00
54038;BME280;39954;48.844;9.726;2024-03-08T03:33:38;95813.97;;;-2.36;100.00
54038;BME280;39954;48.844;9.726;2024-03-08T03:34:44;95812.25;;;-2.32;100.00
54038;BME280;39954;48.844;9.726;2024-03-08T03:35:46;95809.66;;;-2.31;100.00
54038;BME280;39954;48.844;9.726;2024-03-08T03:36:50;95808.06;;;-2.41;100.00
54038;BME280;39954;48.844;9.726;2024-03-08T03:37:55;95808.94;;;-2.40;100.00
54038;BME280;39954;48.844;9.726;2024-03-08T03:39:10;95808.16;;;-2.45;100.00
54038;BME280;39954;48.844;9.726;2024-03-08T03:40:15;95809.06;;;-2.53;100.00
54038;BME280;39954;48.844;9.726;2024-03-08T03:41:21;95804.78;;;-2.49;100.00
54038;BME280;39954;48.844;9.726;2024-03-08T03:42:23;95805.53;;;-2.41;100.00
54038;BME280;39954;48.844;9.726;2024-03-08T03:43:28;95803.88;;;-2.43;100.00
54038;BME280;39954;48.844;9.726;2024-03-08T03:44:30;95809.78;;;-2.41;100.00
54038;BME280;39954;48.844;9.726;2024-03-08T03:45:35;95804.72;;;-2.43;100.00
54038;BME280;39954;48.844;9.726;2024-03-08T03:46:41;95804.63;;;-2.32;100.00
54038;BME280;39954;48.844;9.726;2024-03-08T03:47:47;95791.88;;;-2.32;100.00
54038;BME280;39954;48.844;9.726;2024-03-08T03:48:49;95793.50;;;-2.25;100.00
54038;BME280;39954;48.844;9.726;2024-03-08T03:49:52;95795.19;;;-2.24;100.00
54038;BME280;39954;48.844;9.726;2024-03-08T03:50:57;95795.19;;;-2.24;100.00
54038;BME280;39954;48.844;9.726;2024-03-08T03:51:59;95795.19;;;-2.24;100.00
54038;BME280;39954;48.844;9.726;2024-03-08T03:53:04;95795.19;;;-2.26;100.00
54038;BME280;39954;48.844;9.726;2024-03-08T03:54:12;95792.63;;;-2.22;100.00
54038;BME280;39954;48.844;9.726;2024-03-08T03:55:15;95786.66;;;-2.20;100.00
54038;BME280;39954;48.844;9.726;2024-03-08T03:56:25;95790.00;;;-2.16;100.00
54038;BME280;39954;48.844;9.726;2024-03-08T03:57:27;95791.69;;;-2.17;100.00
54038;BME280;39954;48.844;9.726;2024-03-08T03:58:32;95790.81;;;-2.16;100.00
54038;BME280;39954;48.844;9.726;2024-03-08T03:59:34;95788.41;;;-2.25;100.00
54038;BME280;39954;48.844;9.726;2024-03-08T04:00:39;95786.66;;;-2.20;100.00
54038;BME280;39954;48.844;9.726;2024-03-08T04:01:42;95785.75;;;-2.17;100.00
54038;BME280;39954;48.844;9.726;2024-03-08T04:02:47;95778.09;;;-2.13;100.00
54038;BME280;39954;48.844;9.726;2024-03-08T04:03:50;95781.44;;;-2.11;100.00
54038;BME280;39954;48.844;9.726;2024-03-08T04:04:55;95781.44;;;-2.11;100.00
54038;BME280;39954;48.844;9.726;2024-03-08T04:05:57;95782.31;;;-2.13;100.00
54038;BME280;39954;48.844;9.726;2024-03-08T04:06:59;95773.84;;;-2.14;100.00
54038;BME280;39954;48.844;9.726;2024-03-08T04:08:07;95779.72;;;-2.09;100.00
54038;BME280;39954;48.844;9.726;2024-03-08T04:09:09;95781.44;;;-2.11;100.00
54038;BME280;39954;48.844;9.726;2024-03-08T04:10:14;95774.66;;;-2.12;100.00
54038;BME280;39954;48.844;9.726;2024-03-08T04:11:16;95775.47;;;-2.07;100.00
54038;BME280;39954;48.844;9.726;2024-03-08T04:12:21;95779.72;;;-2.09;100.00
54038;BME280;39954;48.844;9.726;2024-03-08T04:13:24;95773.75;;;-2.08;100.00
54038;BME280;39954;48.844;9.726;2024-03-08T04:14:29;95778.03;;;-2.10;100.00
54038;BME280;39954;48.844;9.726;2024-03-08T04:15:31;95779.72;;;-2.09;100.00
54038;BME280;39954;48.844;9.726;2024-03-08T04:16:37;95772.13;;;-2.12;100.00
54038;BME280;39954;48.844;9.726;2024-03-08T04:17:39;95772.13;;;-2.13;100.00
54038;BME280;39954;48.844;9.726;2024-03-08T04:18:44;95773.81;;;-2.12;100.00
54038;BME280;39954;48.844;9.726;2024-03-08T04:19:46;95774.72;;;-2.15;100.00
54038;BME280;39954;48.844;9.726;2024-03-08T04:20:52;95774.75;;;-2.18;100.00
54038;BME280;39954;48.844;9.726;2024-03-08T04:21:54;95775.63;;;-2.20;100.00
54038;BME280;39954;48.844;9.726;2024-03-08T04:22:59;95773.00;;;-2.16;100.00
54038;BME280;39954;48.844;9.726;2024-03-08T04:24:04;95773.84;;;-2.14;100.00
54038;BME280;39954;48.844;9.726;2024-03-08T04:25:11;95771.25;;;-2.11;100.00
54038;BME280;39954;48.844;9.726;2024-03-08T04:26:13;95769.63;;;-2.15;100.00
54038;BME280;39954;48.844;9.726;2024-03-08T04:27:18;95776.41;;;-2.17;100.00
54038;BME280;39954;48.844;9.726;2024-03-08T04:28:23;95775.63;;;-2.20;100.00
54038;BME280;39954;48.844;9.726;2024-03-08T04:29:25;95779.88;;;-2.22;100.00
54038;BME280;39954;48.844;9.726;2024-03-08T04:30:30;95786.69;;;-2.23;100.00
54038;BME280;39954;48.844;9.726;2024-03-08T04:31:32;95774.84;;;-2.27;100.00
54038;BME280;39954;48.844;9.726;2024-03-08T04:32:37;95777.41;;;-2.30;100.00
54038;BME280;39954;48.844;9.726;2024-03-08T04:33:40;95779.03;;;-2.23;100.00
54038;BME280;39954;48.844;9.726;2024-03-08T04:34:46;95785.00;;;-2.24;100.00
54038;BME280;39954;48.844;9.726;2024-03-08T04:35:49;95782.47;;;-2.26;100.00
54038;BME280;39954;48.844;9.726;2024-03-08T04:36:54;95779.94;;;-2.27;100.00
54038;BME280;39954;48.844;9.726;2024-03-08T04:37:56;95779.00;;;-2.21;100.00
54038;BME280;39954;48.844;9.726;2024-03-08T04:39:03;95775.66;;;-2.23;100.00
54038;BME280;39954;48.844;9.726;2024-03-08T04:40:07;95770.53;;;-2.20;100.00
54038;BME280;39954;48.844;9.726;2024-03-08T04:41:13;95779.03;;;-2.23;100.00
54038;BME280;39954;48.844;9.726;2024-03-08T04:42:16;95773.16;;;-2.27;100.00
54038;BME280;39954;48.844;9.726;2024-03-08T04:43:22;95767.16;;;-2.21;100.00
54038;BME280;39954;48.844;9.726;2024-03-08T04:44:27;95768.00;;;-2.20;100.00
54038;BME280;39954;48.844;9.726;2024-03-08T04:45:32;95773.91;;;-2.20;100.00
54038;BME280;39954;48.844;9.726;2024-03-08T04:46:34;95775.66;;;-2.23;100.00
54038;BME280;39954;48.844;9.726;2024-03-08T04:47:39;95773.13;;;-2.25;100.00
54038;BME280;39954;48.844;9.726;2024-03-08T04:48:42;95774.75;;;-2.19;100.00
54038;BME280;39954;48.844;9.726;2024-03-08T04:49:47;95764.59;;;-2.21;100.00
54038;BME280;39954;48.844;9.726;2024-03-08T04:50:49;95768.06;;;-2.28;100.00
54038;BME280;39954;48.844;9.726;2024-03-08T04:51:55;95767.28;;;-2.32;100.00
54038;BME280;39954;48.844;9.726;2024-03-08T04:52:57;95760.47;;;-2.33;100.00
54038;BME280;39954;48.844;9.726;2024-03-08T04:54:05;95762.16;;;-2.30;100.00
54038;BME280;39954;48.844;9.726;2024-03-08T04:55:07;95760.47;;;-2.30;100.00
54038;BME280;39954;48.844;9.726;2024-03-08T04:56:12;95756.25;;;-2.32;100.00
54038;BME280;39954;48.844;9.726;2024-03-08T04:57:14;95766.47;;;-2.37;100.00
54038;BME280;39954;48.844;9.726;2024-03-08T04:58:21;95761.38;;;-2.38;100.00
54038;BME280;39954;48.844;9.726;2024-03-08T04:59:23;95769.81;;;-2.33;100.00
54038;BME280;39954;48.844;9.726;2024-03-08T05:00:28;95763.13;;;-2.40;100.00
54038;BME280;39954;48.844;9.726;2024-03-08T05:01:31;95763.09;;;-2.37;100.00
54038;BME280;39954;48.844;9.726;2024-03-08T05:02:35;95756.25;;;-2.34;100.00
54038;BME280;39954;48.844;9.726;2024-03-08T05:03:38;95752.84;;;-2.31;100.00
54038;BME280;39954;48.844;9.726;2024-03-08T05:04:43;95762.13;;;-2.29;100.00
54038;BME280;39954;48.844;9.726;2024-03-08T05:05:45;95755.38;;;-2.33;100.00
54038;BME280;39954;48.844;9.726;2024-03-08T05:06:50;95754.56;;;-2.33;100.00
54038;BME280;39954;48.844;9.726;2024-03-08T05:07:52;95763.91;;;-2.34;100.00
54038;BME280;39954;48.844;9.726;2024-03-08T05:08:57;95757.00;;;-2.27;100.00
54038;BME280;39954;48.844;9.726;2024-03-08T05:10:01;95752.88;;;-2.34;100.00
54038;BME280;39954;48.844;9.726;2024-03-08T05:11:06;95753.66;;;-2.31;100.00
54038;BME280;39954;48.844;9.726;2024-03-08T05:12:09;95749.38;;;-2.27;100.00
54038;BME280;39954;48.844;9.726;2024-03-08T05:13:11;95755.28;;;-2.23;100.00
54038;BME280;39954;48.844;9.726;2024-03-08T05:14:16;95753.59;;;-2.25;100.00
54038;BME280;39954;48.844;9.726;2024-03-08T05:15:19;95752.72;;;-2.22;100.00
54038;BME280;39954;48.844;9.726;2024-03-08T05:16:24;95748.53;;;-2.28;100.00
54038;BME280;39954;48.844;9.726;2024-03-08T05:17:27;95745.16;;;-2.27;100.00
54038;BME280;39954;48.844;9.726;2024-03-08T05:18:32;95745.06;;;-2.22;100.00
54038;BME280;39954;48.844;9.726;2024-03-08T05:19:36;95750.09;;;-2.16;100.00
54038;BME280;39954;48.844;9.726;2024-03-08T05:20:40;95737.34;;;-2.13;100.00
54038;BME280;39954;48.844;9.726;2024-03-08T05:21:43;95746.66;;;-2.13;100.00
54038;BME280;39954;48.844;9.726;2024-03-08T05:22:48;95739.81;;;-2.08;100.00
54038;BME280;39954;48.844;9.726;2024-03-08T05:23:50;95743.28;;;-2.12;100.00
54038;BME280;39954;48.844;9.726;2024-03-08T05:24:55;95739.03;;;-2.12;100.00
54038;BME280;39954;48.844;9.726;2024-03-08T05:26:00;95732.25;;;-2.14;100.00
54038;BME280;39954;48.844;9.726;2024-03-08T05:27:08;95733.09;;;-2.12;100.00
54038;BME280;39954;48.844;9.726;2024-03-08T05:28:10;95729.66;;;-2.10;100.00
54038;BME280;39954;48.844;9.726;2024-03-08T05:29:15;95735.69;;;-2.17;100.00
54038;BME280;39954;48.844;9.726;2024-03-08T05:30:17;95724.66;;;-2.19;100.00
54038;BME280;39954;48.844;9.726;2024-03-08T05:31:23;95727.19;;;-2.16;100.00
54038;BME280;39954;48.844;9.726;2024-03-08T05:32:25;95722.13;;;-2.19;100.00
54038;BME280;39954;48.844;9.726;2024-03-08T05:33:32;95722.09;;;-2.16;100.00
54038;BME280;39954;48.844;9.726;2024-03-08T05:34:36;95723.00;;;-2.18;100.00
54038;BME280;39954;48.844;9.726;2024-03-08T05:35:39;95725.50;;;-2.17;100.00
54038;BME280;39954;48.844;9.726;2024-03-08T05:36:45;95724.75;;;-2.23;100.00